Time,TemperatureF,DewpointF,PressureIn,WindDirection,WindDirectionDegrees,WindSpeedMPH,WindSpeedGustMPH,Humidity,HourlyPrecipIn,Conditions,Clouds,dailyrainin,SoftwareType,DateUTC
2013-07-21 00:00:00,81.8,72.7,30.84,SSW,196,0.0,1.0,74,0.00,,,0.00,VWS V13.01,2013-07-21 04:00:00,
2013-07-21 00:01:00,81.8,72.7,30.84,SSW,196,0.0,1.0,74,0.00,,,0.00,VWS V13.01,2013-07-21 04:01:00,
2013-07-21 00:06:00,81.6,72.5,30.84,SSE,167,1.0,4.0,74,0.00,,,0.00,VWS V13.01,2013-07-21 04:06:00,
2013-07-21 00:11:00,81.5,72.8,30.84,South,186,1.0,5.0,75,0.00,,,0.00,VWS V13.01,2013-07-21 04:11:00,
2013-07-21 00:16:00,81.4,72.3,30.84,South,188,2.0,2.0,74,0.00,,,0.00,VWS V13.01,2013-07-21 04:16:00,
2013-07-21 00:21:00,81.2,72.5,30.84,SSE,167,3.0,6.0,75,0.00,,,0.00,VWS V13.01,2013-07-21 04:21:00,
2013-07-21 00:26:00,81.0,72.3,30.84,SSW,196,3.0,7.0,75,0.00,,,0.00,VWS V13.01,2013-07-21 04:26:00,
2013-07-21 00:31:00,80.9,72.2,30.84,South,173,1.0,4.0,75,0.00,,,0.00,VWS V13.01,2013-07-21 04:31:00,
2013-07-21 00:36:00,80.8,72.1,30.84,SSW,205,0.0,3.0,75,0.00,,,0.00,VWS V13.01,2013-07-21 04:36:00,
2013-07-21 00:41:00,80.7,72.4,30.84,SSW,197,0.0,2.0,76,0.00,,,0.00,VWS V13.01,2013-07-21 04:41:00,
2013-07-21 00:46:00,80.6,72.3,30.84,SSW,196,1.0,3.0,76,0.00,,,0.00,VWS V13.01,2013-07-21 04:46:00,
2013-07-21 00:51:00,80.4,72.2,30.84,SSW,196,0.0,2.0,76,0.00,,,0.00,VWS V13.01,2013-07-21 04:51:00,
2013-07-21 00:56:00,80.3,72.4,23.65,SSW,209,2.0,6.0,77,0.00,,,0.00,VWS V13.01,2013-07-21 04:56:00,
2013-07-21 01:01:00,80.1,72.2,23.65,South,188,1.0,4.0,77,0.00,,,0.00,VWS V13.01,2013-07-21 05:01:00,
2013-07-21 01:06:00,79.9,72.4,23.65,SSW,210,0.0,2.0,78,0.00,,,0.00,VWS V13.01,2013-07-21 05:06:00,
2013-07-21 01:11:00,79.8,72.3,23.65,SSW,210,0.0,1.0,78,0.00,,,0.00,VWS V13.01,2013-07-21 05:11:00,
2013-07-21 01:16:00,79.5,72.0,23.65,SSW,211,1.0,3.0,78,0.00,,,0.00,VWS V13.01,2013-07-21 05:16:00,
2013-07-21 01:21:00,79.3,71.8,23.65,SSW,211,0.0,0.0,78,0.00,,,0.00,VWS V13.01,2013-07-21 05:21:00,
2013-07-21 01:26:00,79.1,71.7,23.65,SSW,210,0.0,1.0,78,0.00,,,0.00,VWS V13.01,2013-07-21 05:26:00,
2013-07-21 01:31:00,79.0,71.9,23.65,SSW,210,1.0,1.0,79,0.00,,,0.00,VWS V13.01,2013-07-21 05:31:00,
2013-07-21 01:36:00,78.9,72.2,23.65,SSW,210,0.0,1.0,80,0.00,,,0.00,VWS V13.01,2013-07-21 05:36:00,
2013-07-21 01:41:00,78.7,72.0,23.65,SSW,211,0.0,2.0,80,0.00,,,0.00,VWS V13.01,2013-07-21 05:41:00,
2013-07-21 01:46:00,78.7,72.4,20.93,SSW,210,0.0,1.0,81,0.00,,,0.00,VWS V13.01,2013-07-21 05:46:00,
2013-07-21 01:51:00,78.7,72.4,20.93,SSW,206,1.0,2.0,81,0.00,,,0.00,VWS V13.01,2013-07-21 05:51:00,
2013-07-21 01:56:00,78.6,71.9,20.93,SSW,206,0.0,0.0,80,0.00,,,0.00,VWS V13.01,2013-07-21 05:56:00,
2013-07-21 02:01:00,78.6,72.3,20.93,SSW,211,1.0,3.0,81,0.00,,,0.00,VWS V13.01,2013-07-21 06:01:00,
2013-07-21 02:06:00,78.5,72.2,20.93,SSW,211,0.0,1.0,81,0.00,,,0.00,VWS V13.01,2013-07-21 06:06:00,
2013-07-21 02:11:00,78.3,71.6,20.93,SSW,212,1.0,2.0,80,0.00,,,0.00,VWS V13.01,2013-07-21 06:11:00,
2013-07-21 02:16:00,78.1,71.8,20.93,SW,217,0.0,0.0,81,0.00,,,0.00,VWS V13.01,2013-07-21 06:16:00,
2013-07-21 02:21:00,77.9,71.6,20.93,SW,216,0.0,0.0,81,0.00,,,0.00,VWS V13.01,2013-07-21 06:21:00,
2013-07-21 02:26:00,77.8,71.5,20.93,SW,215,0.0,0.0,81,0.00,,,0.00,VWS V13.01,2013-07-21 06:26:00,
2013-07-21 02:31:00,77.7,71.8,20.93,SW,216,0.0,0.0,82,0.00,,,0.00,VWS V13.01,2013-07-21 06:31:00,
2013-07-21 02:36:00,77.7,71.8,20.93,SW,221,3.0,3.0,82,0.00,,,0.00,VWS V13.01,2013-07-21 06:36:00,
2013-07-21 02:41:00,77.7,71.8,20.93,West,276,0.0,2.0,82,0.00,,,0.00,VWS V13.01,2013-07-21 06:41:00,
2013-07-21 02:46:00,77.8,71.9,20.93,West,276,0.0,1.0,82,0.00,,,0.00,VWS V13.01,2013-07-21 06:46:00,
2013-07-21 02:51:00,77.8,71.9,20.93,West,266,0.0,1.0,82,0.00,,,0.00,VWS V13.01,2013-07-21 06:51:00,
2013-07-21 02:56:00,77.7,71.4,20.93,West,266,1.0,1.0,81,0.00,,,0.00,VWS V13.01,2013-07-21 06:56:00,
2013-07-21 03:01:00,77.7,71.8,20.93,West,266,0.0,1.0,82,0.00,,,0.00,VWS V13.01,2013-07-21 07:01:00,
2013-07-21 03:06:00,77.6,71.7,24.22,SW,227,0.0,3.0,82,0.00,,,0.00,VWS V13.01,2013-07-21 07:06:00,
2013-07-21 03:11:00,77.5,71.2,24.22,SW,227,0.0,1.0,81,0.00,,,0.00,VWS V13.01,2013-07-21 07:11:00,
2013-07-21 03:16:00,77.4,71.1,24.22,SW,227,0.0,0.0,81,0.00,,,0.00,VWS V13.01,2013-07-21 07:16:00,
2013-07-21 03:21:00,77.3,71.7,24.22,SW,226,0.0,1.0,83,0.00,,,0.00,VWS V13.01,2013-07-21 07:21:00,
2013-07-21 03:26:00,77.3,71.7,24.22,SW,227,0.0,0.0,83,0.00,,,0.00,VWS V13.01,2013-07-21 07:26:00,
2013-07-21 03:31:00,77.1,71.5,24.22,SW,231,2.0,3.0,83,0.00,,,0.00,VWS V13.01,2013-07-21 07:31:00,
2013-07-21 03:36:00,77.1,71.2,24.22,SW,230,0.0,0.0,82,0.00,,,0.00,VWS V13.01,2013-07-21 07:36:00,
2013-07-21 03:41:00,77.0,71.1,24.22,SW,230,0.0,0.0,82,0.00,,,0.00,VWS V13.01,2013-07-21 07:41:00,
2013-07-21 03:46:00,76.8,71.2,24.22,SW,230,0.0,0.0,83,0.00,,,0.00,VWS V13.01,2013-07-21 07:46:00,
2013-07-21 03:51:00,76.5,70.6,24.22,SW,231,0.0,0.0,82,0.00,,,0.00,VWS V13.01,2013-07-21 07:51:00,
2013-07-21 03:56:00,76.2,70.7,24.22,SW,231,0.0,0.0,83,0.00,,,0.00,VWS V13.01,2013-07-21 07:56:00,
2013-07-21 04:01:00,76.0,70.8,24.22,SW,231,0.0,0.0,84,0.00,,,0.00,VWS V13.01,2013-07-21 08:01:00,
2013-07-21 04:06:00,75.8,71.0,24.22,SW,231,0.0,0.0,85,0.00,,,0.00,VWS V13.01,2013-07-21 08:06:00,
2013-07-21 04:11:00,75.7,71.2,24.22,SW,230,0.0,2.0,86,0.00,,,0.00,VWS V13.01,2013-07-21 08:11:00,
2013-07-21 04:16:00,75.6,71.1,24.22,SW,230,0.0,0.0,86,0.00,,,0.00,VWS V13.01,2013-07-21 08:16:00,
2013-07-21 04:21:00,75.4,70.9,24.22,SW,231,0.0,0.0,86,0.00,,,0.00,VWS V13.01,2013-07-21 08:21:00,
2013-07-21 04:26:00,75.2,70.7,24.22,SW,231,0.0,0.0,86,0.00,,,0.00,VWS V13.01,2013-07-21 08:26:00,
2013-07-21 04:31:00,75.0,70.5,24.22,SW,231,0.0,0.0,86,0.00,,,0.00,VWS V13.01,2013-07-21 08:31:00,
2013-07-21 04:36:00,74.8,70.3,24.22,SW,230,0.0,0.0,86,0.00,,,0.00,VWS V13.01,2013-07-21 08:36:00,
2013-07-21 04:41:00,74.7,70.2,24.22,SW,231,0.0,0.0,86,0.00,,,0.00,VWS V13.01,2013-07-21 08:41:00,
2013-07-21 04:46:00,74.5,70.4,24.22,SW,231,0.0,0.0,87,0.00,,,0.00,VWS V13.01,2013-07-21 08:46:00,
2013-07-21 04:51:00,74.4,70.3,24.22,SW,230,0.0,0.0,87,0.00,,,0.00,VWS V13.01,2013-07-21 08:51:00,
2013-07-21 04:56:00,74.3,70.2,24.22,SW,231,0.0,0.0,87,0.00,,,0.00,VWS V13.01,2013-07-21 08:56:00,
2013-07-21 05:01:00,74.2,70.1,24.22,SW,231,0.0,0.0,87,0.00,,,0.00,VWS V13.01,2013-07-21 09:01:00,
2013-07-21 05:06:00,74.1,70.3,24.22,SW,231,0.0,0.0,88,0.00,,,0.00,VWS V13.01,2013-07-21 09:06:00,
2013-07-21 05:11:00,74.0,70.2,24.22,SW,230,0.0,0.0,88,0.00,,,0.00,VWS V13.01,2013-07-21 09:11:00,
2013-07-21 05:16:00,74.0,70.2,24.22,SW,231,0.0,0.0,88,0.00,,,0.00,VWS V13.01,2013-07-21 09:16:00,
2013-07-21 05:21:00,73.9,70.1,24.22,SW,230,0.0,0.0,88,0.00,,,0.00,VWS V13.01,2013-07-21 09:21:00,
2013-07-21 05:26:00,73.9,70.1,24.22,SW,231,0.0,0.0,88,0.00,,,0.00,VWS V13.01,2013-07-21 09:26:00,
2013-07-21 05:31:00,73.9,70.1,24.22,SW,231,0.0,0.0,88,0.00,,,0.00,VWS V13.01,2013-07-21 09:31:00,
2013-07-21 05:36:00,73.9,70.1,24.22,SW,230,0.0,0.0,88,0.00,,,0.00,VWS V13.01,2013-07-21 09:36:00,
2013-07-21 05:41:00,74.0,70.2,24.22,SW,231,0.0,0.0,88,0.00,,,0.00,VWS V13.01,2013-07-21 09:41:00,
2013-07-21 05:46:00,74.1,70.7,24.22,SW,231,0.0,0.0,89,0.00,,,0.00,VWS V13.01,2013-07-21 09:46:00,
2013-07-21 05:51:00,74.1,70.3,24.22,SW,231,0.0,0.0,88,0.00,,,0.00,VWS V13.01,2013-07-21 09:51:00,
2013-07-21 05:56:00,74.0,70.2,24.22,SW,231,0.0,0.0,88,0.00,,,0.00,VWS V13.01,2013-07-21 09:56:00,
2013-07-21 06:01:00,73.8,70.0,24.22,SW,231,0.0,0.0,88,0.00,,,0.00,VWS V13.01,2013-07-21 10:01:00,
2013-07-21 06:06:00,73.6,69.8,24.22,SW,230,0.0,0.0,88,0.00,,,0.00,VWS V13.01,2013-07-21 10:06:00,
2013-07-21 06:11:00,73.5,70.1,24.22,SW,231,0.0,0.0,89,0.00,,,0.00,VWS V13.01,2013-07-21 10:11:00,
2013-07-21 06:16:00,73.4,70.0,24.22,SW,231,0.0,0.0,89,0.00,,,0.00,VWS V13.01,2013-07-21 10:16:00,
2013-07-21 06:21:00,73.3,69.9,24.22,SW,231,0.0,0.0,89,0.00,,,0.00,VWS V13.01,2013-07-21 10:21:00,
2013-07-21 06:26:00,73.5,70.1,24.22,SW,230,0.0,0.0,89,0.00,,,0.00,VWS V13.01,2013-07-21 10:26:00,
2013-07-21 06:31:00,73.6,70.2,24.22,SW,230,0.0,0.0,89,0.00,,,0.00,VWS V13.01,2013-07-21 10:31:00,
2013-07-21 06:36:00,73.7,70.3,19.19,SW,231,0.0,0.0,89,0.00,,,0.00,VWS V13.01,2013-07-21 10:36:00,
2013-07-21 06:41:00,73.7,70.3,19.19,SW,231,0.0,0.0,89,0.00,,,0.00,VWS V13.01,2013-07-21 10:41:00,
2013-07-21 06:46:00,73.9,70.5,19.19,SW,231,0.0,0.0,89,0.00,,,0.00,VWS V13.01,2013-07-21 10:46:00,
2013-07-21 06:51:00,74.0,70.6,19.19,SW,231,0.0,0.0,89,0.00,,,0.00,VWS V13.01,2013-07-21 10:51:00,
2013-07-21 06:56:00,74.3,70.8,19.19,SW,230,0.0,0.0,89,0.00,,,0.00,VWS V13.01,2013-07-21 10:56:00,
2013-07-21 07:01:00,74.7,71.2,19.19,SW,230,0.0,0.0,89,0.00,,,0.00,VWS V13.01,2013-07-21 11:01:00,
2013-07-21 07:06:00,74.9,71.4,19.19,SW,231,0.0,0.0,89,0.00,,,0.00,VWS V13.01,2013-07-21 11:06:00,
2013-07-21 07:11:00,75.2,71.7,19.19,SW,231,0.0,0.0,89,0.00,,,0.00,VWS V13.01,2013-07-21 11:11:00,
2013-07-21 07:16:00,75.5,71.7,19.19,SW,231,0.0,0.0,88,0.00,,,0.00,VWS V13.01,2013-07-21 11:16:00,
2013-07-21 07:21:00,75.7,71.6,19.19,SW,230,0.0,0.0,87,0.00,,,0.00,VWS V13.01,2013-07-21 11:21:00,
2013-07-21 07:26:00,76.1,71.6,19.19,SW,231,0.0,0.0,86,0.00,,,0.00,VWS V13.01,2013-07-21 11:26:00,
2013-07-21 07:31:00,76.8,72.3,19.19,SW,230,0.0,0.0,86,0.00,,,0.00,VWS V13.01,2013-07-21 11:31:00,
2013-07-21 07:36:00,77.3,72.4,19.19,SW,230,0.0,0.0,85,0.00,,,0.00,VWS V13.01,2013-07-21 11:36:00,
2013-07-21 07:41:00,78.0,72.4,19.19,SW,231,0.0,0.0,83,0.00,,,0.00,VWS V13.01,2013-07-21 11:41:00,
2013-07-21 07:46:00,78.4,71.3,19.19,SW,231,1.0,2.0,79,0.00,,,0.00,VWS V13.01,2013-07-21 11:46:00,
2013-07-21 07:51:00,78.7,70.9,19.19,WSW,245,0.0,2.0,77,0.00,,,0.00,VWS V13.01,2013-07-21 11:51:00,
2013-07-21 07:56:00,79.3,71.1,19.19,WSW,252,0.0,4.0,76,0.00,,,0.00,VWS V13.01,2013-07-21 11:56:00,
2013-07-21 08:01:00,79.6,71.0,19.19,WSW,256,0.0,3.0,75,0.00,,,0.00,VWS V13.01,2013-07-21 12:01:00,
2013-07-21 08:06:00,79.8,71.6,19.19,WNW,284,2.0,4.0,76,0.00,,,0.00,VWS V13.01,2013-07-21 12:06:00,
2013-07-21 08:11:00,79.8,71.2,19.19,WNW,284,0.0,3.0,75,0.00,,,0.00,VWS V13.01,2013-07-21 12:11:00,
2013-07-21 08:16:00,80.0,71.4,19.19,WNW,285,2.0,4.0,75,0.00,,,0.00,VWS V13.01,2013-07-21 12:16:00,
2013-07-21 08:21:00,80.3,70.9,19.19,WNW,285,1.0,4.0,73,0.00,,,0.00,VWS V13.01,2013-07-21 12:21:00,
2013-07-21 08:26:00,80.7,71.7,19.19,WNW,285,0.0,0.0,74,0.00,,,0.00,VWS V13.01,2013-07-21 12:26:00,
2013-07-21 08:31:00,81.2,71.3,19.19,WNW,285,0.0,2.0,72,0.00,,,0.00,VWS V13.01,2013-07-21 12:31:00,
2013-07-21 08:36:00,81.6,71.3,19.19,WNW,286,1.0,3.0,71,0.00,,,0.00,VWS V13.01,2013-07-21 12:36:00,
2013-07-21 08:41:00,81.9,71.6,19.19,WNW,284,0.0,4.0,71,0.00,,,0.00,VWS V13.01,2013-07-21 12:41:00,
2013-07-21 08:46:00,82.2,71.0,19.19,WNW,286,0.0,0.0,69,0.00,,,0.00,VWS V13.01,2013-07-21 12:46:00,
2013-07-21 08:51:00,82.7,71.9,19.19,WNW,284,0.0,1.0,70,0.00,,,0.00,VWS V13.01,2013-07-21 12:51:00,
2013-07-21 08:56:00,83.3,72.1,19.19,West,277,2.0,2.0,69,0.00,,,0.00,VWS V13.01,2013-07-21 12:56:00,
2013-07-21 09:01:00,83.6,71.9,16.91,West,276,3.0,3.0,68,0.00,,,0.00,VWS V13.01,2013-07-21 13:01:00,
2013-07-21 09:06:00,83.5,72.3,16.91,West,276,0.0,1.0,69,0.00,,,0.00,VWS V13.01,2013-07-21 13:06:00,
2013-07-21 09:11:00,83.5,71.8,16.91,West,279,2.0,4.0,68,0.00,,,0.00,VWS V13.01,2013-07-21 13:11:00,
2013-07-21 09:16:00,83.5,72.3,16.91,West,275,1.0,2.0,69,0.00,,,0.00,VWS V13.01,2013-07-21 13:16:00,
2013-07-21 09:21:00,83.8,72.6,16.91,West,273,0.0,2.0,69,0.00,,,0.00,VWS V13.01,2013-07-21 13:21:00,
2013-07-21 09:26:00,84.1,72.8,16.91,SSW,204,2.0,3.0,69,0.00,,,0.00,VWS V13.01,2013-07-21 13:26:00,
2013-07-21 09:31:00,84.1,72.8,16.91,West,267,2.0,4.0,69,0.00,,,0.00,VWS V13.01,2013-07-21 13:31:00,
2013-07-21 09:36:00,83.9,72.2,16.91,SW,230,0.0,4.0,68,0.00,,,0.00,VWS V13.01,2013-07-21 13:36:00,
2013-07-21 09:41:00,84.0,71.9,16.91,WNW,287,3.0,10.0,67,0.00,,,0.00,VWS V13.01,2013-07-21 13:41:00,
2013-07-21 09:46:00,83.9,72.2,16.91,WSW,252,4.0,5.0,68,0.00,,,0.00,VWS V13.01,2013-07-21 13:46:00,
2013-07-21 09:51:00,83.9,72.2,16.91,West,263,0.0,5.0,68,0.00,,,0.00,VWS V13.01,2013-07-21 13:51:00,
2013-07-21 09:56:00,83.9,72.2,16.91,West,281,3.0,7.0,68,0.00,,,0.00,VWS V13.01,2013-07-21 13:56:00,
2013-07-21 10:01:00,83.9,72.2,16.91,West,269,3.0,3.0,68,0.00,,,0.00,VWS V13.01,2013-07-21 14:01:00,
2013-07-21 10:06:00,84.1,72.8,16.91,West,264,0.0,4.0,69,0.00,,,0.00,VWS V13.01,2013-07-21 14:06:00,
2013-07-21 10:11:00,84.3,72.6,16.91,SSW,210,1.0,2.0,68,0.00,,,0.00,VWS V13.01,2013-07-21 14:11:00,
2013-07-21 10:16:00,84.8,72.6,16.91,WNW,284,0.0,5.0,67,0.00,,,0.00,VWS V13.01,2013-07-21 14:16:00,
2013-07-21 10:21:00,84.7,72.1,16.91,NW,311,1.0,3.0,66,0.00,,,0.00,VWS V13.01,2013-07-21 14:21:00,
2013-07-21 10:26:00,85.0,72.4,16.91,West,275,2.0,3.0,66,0.00,,,0.00,VWS V13.01,2013-07-21 14:26:00,
2013-07-21 10:31:00,85.5,72.8,16.91,West,261,1.0,4.0,66,0.00,,,0.00,VWS V13.01,2013-07-21 14:31:00,
2013-07-21 10:36:00,85.6,72.5,16.91,NW,306,1.0,6.0,65,0.00,,,0.00,VWS V13.01,2013-07-21 14:36:00,
2013-07-21 10:41:00,85.8,72.7,16.91,WNW,284,3.0,6.0,65,0.00,,,0.00,VWS V13.01,2013-07-21 14:41:00,
2013-07-21 10:46:00,86.1,73.4,16.91,NW,304,1.0,4.0,66,0.00,,,0.00,VWS V13.01,2013-07-21 14:46:00,
2013-07-21 10:51:00,86.4,73.2,16.91,West,261,0.0,3.0,65,0.00,,,0.00,VWS V13.01,2013-07-21 14:51:00,
2013-07-21 10:56:00,87.0,72.9,16.91,SW,228,5.0,5.0,63,0.00,,,0.00,VWS V13.01,2013-07-21 14:56:00,
2013-07-21 11:01:00,87.3,73.2,16.91,North,350,2.0,5.0,63,0.00,,,0.00,VWS V13.01,2013-07-21 15:01:00,
2013-07-21 11:06:00,87.7,74.0,16.91,SSW,198,1.0,3.0,64,0.00,,,0.00,VWS V13.01,2013-07-21 15:06:00,
2013-07-21 11:11:00,87.9,73.3,16.91,SSW,209,0.0,9.0,62,0.00,,,0.00,VWS V13.01,2013-07-21 15:11:00,
2013-07-21 11:16:00,87.8,73.2,16.91,West,264,2.0,5.0,62,0.00,,,0.00,VWS V13.01,2013-07-21 15:16:00,
2013-07-21 11:21:00,88.6,73.9,16.91,South,169,2.0,5.0,62,0.00,,,0.00,VWS V13.01,2013-07-21 15:21:00,
2013-07-21 11:26:00,88.8,73.1,16.91,West,279,2.0,6.0,60,0.00,,,0.00,VWS V13.01,2013-07-21 15:26:00,
2013-07-21 11:31:00,88.3,73.2,16.91,WNW,282,7.0,9.0,61,0.00,,,0.00,VWS V13.01,2013-07-21 15:31:00,
2013-07-21 11:36:00,88.3,73.2,16.91,WNW,286,4.0,4.0,61,0.00,,,0.00,VWS V13.01,2013-07-21 15:36:00,
2013-07-21 11:41:00,88.1,73.4,16.91,WSW,240,0.0,6.0,62,0.00,,,0.00,VWS V13.01,2013-07-21 15:41:00,
2013-07-21 11:46:00,88.2,73.1,16.91,NW,324,3.0,5.0,61,0.00,,,0.00,VWS V13.01,2013-07-21 15:46:00,
2013-07-21 11:51:00,88.8,73.6,16.91,West,262,0.0,5.0,61,0.00,,,0.00,VWS V13.01,2013-07-21 15:51:00,
2013-07-21 11:56:00,89.1,73.9,16.91,South,188,3.0,4.0,61,0.00,,,0.00,VWS V13.01,2013-07-21 15:56:00,
2013-07-21 12:01:00,88.9,73.7,16.91,SW,230,0.0,6.0,61,0.00,,,0.00,VWS V13.01,2013-07-21 16:01:00,
2013-07-21 12:06:00,88.7,73.0,16.91,West,261,4.0,4.0,60,0.00,,,0.00,VWS V13.01,2013-07-21 16:06:00,
2013-07-21 12:11:00,89.0,73.3,16.91,West,261,0.0,1.0,60,0.00,,,0.00,VWS V13.01,2013-07-21 16:11:00,
2013-07-21 12:16:00,89.7,74.0,16.91,South,171,3.0,5.0,60,0.00,,,0.00,VWS V13.01,2013-07-21 16:16:00,
2013-07-21 12:21:00,89.5,74.3,16.91,South,180,2.0,6.0,61,0.00,,,0.00,VWS V13.01,2013-07-21 16:21:00,
2013-07-21 12:26:00,89.4,72.7,16.91,West,279,0.0,4.0,58,0.00,,,0.00,VWS V13.01,2013-07-21 16:26:00,
2013-07-21 12:31:00,89.6,73.4,16.91,ESE,116,3.0,5.0,59,0.00,,,0.00,VWS V13.01,2013-07-21 16:31:00,
2013-07-21 12:36:00,88.9,73.2,16.91,West,270,3.0,7.0,60,0.00,,,0.00,VWS V13.01,2013-07-21 16:36:00,
2013-07-21 12:41:00,89.3,73.6,16.91,SE,145,2.0,7.0,60,0.00,,,0.00,VWS V13.01,2013-07-21 16:41:00,
2013-07-21 12:46:00,89.9,73.7,16.91,SW,232,6.0,6.0,59,0.00,,,0.00,VWS V13.01,2013-07-21 16:46:00,
2013-07-21 12:51:00,89.7,74.0,16.91,West,260,1.0,6.0,60,0.00,,,0.00,VWS V13.01,2013-07-21 16:51:00,
2013-07-21 12:56:00,89.9,74.7,16.91,SE,144,3.0,3.0,61,0.00,,,0.00,VWS V13.01,2013-07-21 16:56:00,
2013-07-21 13:01:00,90.1,73.8,16.91,SSW,197,5.0,5.0,59,0.00,,,0.00,VWS V13.01,2013-07-21 17:01:00,
2013-07-21 13:06:00,89.9,74.2,16.91,ESE,113,2.0,4.0,60,0.00,,,0.00,VWS V13.01,2013-07-21 17:06:00,
2013-07-21 13:11:00,90.2,73.9,16.91,NNW,338,3.0,6.0,59,0.00,,,0.00,VWS V13.01,2013-07-21 17:11:00,
2013-07-21 13:16:00,91.0,74.7,16.91,South,190,4.0,5.0,59,0.00,,,0.00,VWS V13.01,2013-07-21 17:16:00,
2013-07-21 13:21:00,91.2,74.4,16.91,South,186,3.0,4.0,58,0.00,,,0.00,VWS V13.01,2013-07-21 17:21:00,
2013-07-21 13:26:00,91.1,74.8,16.91,WSW,253,6.0,6.0,59,0.00,,,0.00,VWS V13.01,2013-07-21 17:26:00,
2013-07-21 13:31:00,91.0,74.2,16.91,WSW,257,3.0,5.0,58,0.00,,,0.00,VWS V13.01,2013-07-21 17:31:00,
2013-07-21 13:36:00,90.7,74.4,16.91,SE,136,1.0,3.0,59,0.00,,,0.00,VWS V13.01,2013-07-21 17:36:00,
2013-07-21 13:41:00,90.9,73.6,16.91,WSW,248,2.0,3.0,57,0.00,,,0.00,VWS V13.01,2013-07-21 17:41:00,
2013-07-21 13:46:00,91.1,74.3,16.91,SSE,163,4.0,6.0,58,0.00,,,0.00,VWS V13.01,2013-07-21 17:46:00,
2013-07-21 13:51:00,91.1,74.8,16.91,ESE,112,4.0,6.0,59,0.00,,,0.00,VWS V13.01,2013-07-21 17:51:00,
2013-07-21 13:56:00,90.7,74.9,16.91,East,101,3.0,7.0,60,0.00,,,0.00,VWS V13.01,2013-07-21 17:56:00,
2013-07-21 14:01:00,90.0,73.2,16.91,SSW,199,5.0,5.0,58,0.00,,,0.00,VWS V13.01,2013-07-21 18:01:00,
2013-07-21 14:06:00,90.5,74.2,16.91,SSW,213,2.0,4.0,59,0.00,,,0.00,VWS V13.01,2013-07-21 18:06:00,
2013-07-21 14:11:00,91.1,74.3,16.91,South,188,4.0,6.0,58,0.00,,,0.00,VWS V13.01,2013-07-21 18:11:00,
2013-07-21 14:16:00,91.0,74.2,16.92,South,190,1.0,5.0,58,0.00,,,0.00,VWS V13.01,2013-07-21 18:16:00,
2013-07-21 14:21:00,91.3,75.0,16.92,SE,139,1.0,3.0,59,0.00,,,0.00,VWS V13.01,2013-07-21 18:21:00,
2013-07-21 14:26:00,91.9,74.5,16.91,SE,139,0.0,3.0,57,0.00,,,0.00,VWS V13.01,2013-07-21 18:26:00,
2013-07-21 14:31:00,91.7,74.3,16.91,South,177,1.0,9.0,57,0.00,,,0.00,VWS V13.01,2013-07-21 18:31:00,
2013-07-21 14:36:00,91.1,74.8,16.91,SE,142,1.0,5.0,59,0.00,,,0.00,VWS V13.01,2013-07-21 18:36:00,
2013-07-21 14:41:00,91.2,73.8,16.91,SE,132,2.0,4.0,57,0.00,,,0.00,VWS V13.01,2013-07-21 18:41:00,
2013-07-21 14:46:00,91.1,73.8,16.91,ENE,75,1.0,3.0,57,0.00,,,0.00,VWS V13.01,2013-07-21 18:46:00,
2013-07-21 14:51:00,91.2,73.8,16.91,SW,217,4.0,6.0,57,0.00,,,0.00,VWS V13.01,2013-07-21 18:51:00,
2013-07-21 14:56:00,91.1,73.8,16.91,West,277,3.0,4.0,57,0.00,,,0.00,VWS V13.01,2013-07-21 18:56:00,
2013-07-21 15:01:00,91.0,74.7,16.91,West,260,0.0,5.0,59,0.00,,,0.00,VWS V13.01,2013-07-21 19:01:00,
2013-07-21 15:06:00,90.9,74.6,16.91,SW,217,2.0,5.0,59,0.00,,,0.00,VWS V13.01,2013-07-21 19:06:00,
2013-07-21 15:11:00,90.5,73.7,16.91,South,172,0.0,3.0,58,0.00,,,0.00,VWS V13.01,2013-07-21 19:11:00,
2013-07-21 15:16:00,90.3,74.0,16.92,South,182,5.0,7.0,59,0.00,,,0.00,VWS V13.01,2013-07-21 19:16:00,
2013-07-21 15:21:00,89.8,74.1,16.92,SSW,194,3.0,7.0,60,0.00,,,0.00,VWS V13.01,2013-07-21 19:21:00,
2013-07-21 15:26:00,89.6,73.9,16.92,West,265,3.0,10.0,60,0.00,,,0.00,VWS V13.01,2013-07-21 19:26:00,
2013-07-21 15:31:00,89.5,74.3,16.92,SW,216,2.0,3.0,61,0.00,,,0.00,VWS V13.01,2013-07-21 19:31:00,
2013-07-21 15:36:00,89.2,74.0,16.92,SSE,163,0.0,2.0,61,0.00,,,0.00,VWS V13.01,2013-07-21 19:36:00,
2013-07-21 15:41:00,89.0,73.3,16.92,SSW,194,1.0,5.0,60,0.00,,,0.00,VWS V13.01,2013-07-21 19:41:00,
2013-07-21 15:46:00,88.5,73.8,16.92,South,190,6.0,6.0,62,0.00,,,0.00,VWS V13.01,2013-07-21 19:46:00,
2013-07-21 15:51:00,88.0,73.4,16.92,SSW,194,3.0,4.0,62,0.00,,,0.00,VWS V13.01,2013-07-21 19:51:00,
2013-07-21 15:56:00,87.8,73.6,16.92,South,182,0.0,4.0,63,0.00,,,0.00,VWS V13.01,2013-07-21 19:56:00,
2013-07-21 16:01:00,87.7,74.0,16.92,South,179,4.0,6.0,64,0.00,,,0.00,VWS V13.01,2013-07-21 20:01:00,
2013-07-21 16:06:00,87.7,74.0,16.92,WSW,242,7.0,7.0,64,0.00,,,0.00,VWS V13.01,2013-07-21 20:06:00,
2013-07-21 16:11:00,87.3,74.1,16.92,WSW,252,3.0,11.0,65,0.00,,,0.00,VWS V13.01,2013-07-21 20:11:00,
2013-07-21 16:16:00,86.5,74.2,16.92,West,275,0.0,5.0,67,0.00,,,0.00,VWS V13.01,2013-07-21 20:16:00,
2013-07-21 16:21:00,86.2,74.4,19.14,WSW,248,1.0,5.0,68,0.00,,,0.00,VWS V13.01,2013-07-21 20:21:00,
2013-07-21 16:26:00,85.8,73.6,16.92,WNW,293,4.0,5.0,67,0.00,,,0.00,VWS V13.01,2013-07-21 20:26:00,
2013-07-21 16:31:00,85.3,73.6,16.91,WSW,258,6.0,11.0,68,0.00,,,0.00,VWS V13.01,2013-07-21 20:31:00,
2013-07-21 16:36:00,84.7,73.0,16.17,SW,219,2.0,6.0,68,0.00,,,0.00,VWS V13.01,2013-07-21 20:36:00,
2013-07-21 16:41:00,84.4,73.1,16.17,WSW,249,1.0,6.0,69,0.00,,,0.00,VWS V13.01,2013-07-21 20:41:00,
2013-07-21 16:46:00,84.2,72.5,16.17,WNW,284,2.0,3.0,68,0.00,,,0.00,VWS V13.01,2013-07-21 20:46:00,
2013-07-21 16:51:00,83.9,72.7,16.17,SW,232,3.0,6.0,69,0.00,,,0.00,VWS V13.01,2013-07-21 20:51:00,
2013-07-21 16:56:00,83.7,72.5,16.17,West,277,4.0,4.0,69,0.00,,,0.00,VWS V13.01,2013-07-21 20:56:00,
2013-07-21 17:01:00,83.5,73.1,16.17,WSW,254,3.0,5.0,71,0.00,,,0.00,VWS V13.01,2013-07-21 21:01:00,
2013-07-21 17:06:00,83.0,73.1,16.91,WNW,296,2.0,2.0,72,0.00,,,0.00,VWS V13.01,2013-07-21 21:06:00,
2013-07-21 17:11:00,82.7,73.6,16.91,West,277,1.0,3.0,74,0.00,,,0.00,VWS V13.01,2013-07-21 21:11:00,
2013-07-21 17:16:00,82.3,73.6,16.91,West,263,2.0,6.0,75,0.00,,,0.00,VWS V13.01,2013-07-21 21:16:00,
2013-07-21 17:21:00,82.0,73.7,16.91,West,268,2.0,6.0,76,0.00,,,0.00,VWS V13.01,2013-07-21 21:21:00,
2013-07-21 17:26:00,81.8,74.3,16.91,WSW,248,2.0,3.0,78,0.00,,,0.00,VWS V13.01,2013-07-21 21:26:00,
2013-07-21 17:31:00,81.8,74.7,16.91,WSW,252,3.0,7.0,79,0.00,,,0.00,VWS V13.01,2013-07-21 21:31:00,
2013-07-21 17:36:00,81.4,74.3,16.91,West,265,0.0,5.0,79,0.00,,,0.00,VWS V13.01,2013-07-21 21:36:00,
2013-07-21 17:41:00,81.0,74.6,18.18,West,281,4.0,11.0,81,0.00,,,0.00,VWS V13.01,2013-07-21 21:41:00,
2013-07-21 17:46:00,80.6,74.6,16.91,West,275,3.0,3.0,82,0.00,,,0.00,VWS V13.01,2013-07-21 21:46:00,
2013-07-21 17:51:00,80.2,74.6,16.91,WNW,283,2.0,2.0,83,0.01,,,0.01,VWS V13.01,2013-07-21 21:51:00,
2013-07-21 17:56:00,79.8,74.5,30.84,West,275,3.0,3.0,84,0.01,,,0.01,VWS V13.01,2013-07-21 21:56:00,
2013-07-21 18:01:00,79.4,74.2,30.84,WNW,301,0.0,4.0,84,0.01,,,0.01,VWS V13.01,2013-07-21 22:01:00,
2013-07-21 18:06:00,79.1,74.2,30.84,NW,310,2.0,4.0,85,0.01,,,0.01,VWS V13.01,2013-07-21 22:06:00,
2013-07-21 18:11:00,79.1,74.2,30.84,WNW,283,0.0,2.0,85,0.01,,,0.01,VWS V13.01,2013-07-21 22:11:00,
2013-07-21 18:16:00,79.2,74.3,30.85,NW,306,1.0,5.0,85,0.01,,,0.01,VWS V13.01,2013-07-21 22:16:00,
2013-07-21 18:21:00,79.3,74.8,30.85,NW,304,1.0,2.0,86,0.01,,,0.01,VWS V13.01,2013-07-21 22:21:00,
2013-07-21 18:26:00,79.1,74.6,30.85,NW,304,0.0,1.0,86,0.01,,,0.01,VWS V13.01,2013-07-21 22:26:00,
2013-07-21 18:31:00,79.2,74.7,30.85,NW,304,0.0,1.0,86,0.01,,,0.01,VWS V13.01,2013-07-21 22:31:00,
2013-07-21 18:36:00,79.3,74.8,30.85,WNW,303,0.0,1.0,86,0.01,,,0.01,VWS V13.01,2013-07-21 22:36:00,
2013-07-21 18:41:00,79.2,74.7,30.85,WNW,303,0.0,0.0,86,0.01,,,0.01,VWS V13.01,2013-07-21 22:41:00,
2013-07-21 18:46:00,79.3,74.8,30.85,WNW,303,0.0,0.0,86,0.01,,,0.01,VWS V13.01,2013-07-21 22:46:00,
2013-07-21 18:51:00,79.3,74.8,30.85,WNW,303,0.0,0.0,86,0.00,,,0.01,VWS V13.01,2013-07-21 22:51:00,
2013-07-21 18:56:00,79.4,74.5,30.85,NNW,338,0.0,2.0,85,0.00,,,0.01,VWS V13.01,2013-07-21 22:56:00,
2013-07-21 19:01:00,79.6,74.7,30.85,NNW,338,0.0,0.0,85,0.00,,,0.01,VWS V13.01,2013-07-21 23:01:00,
2013-07-21 19:06:00,80.0,75.8,30.85,NNW,337,0.0,1.0,87,0.00,,,0.01,VWS V13.01,2013-07-21 23:06:00,
2013-07-21 19:11:00,80.1,75.9,30.85,NNW,338,0.0,0.0,87,0.00,,,0.01,VWS V13.01,2013-07-21 23:11:00,
2013-07-21 19:16:00,79.9,75.3,30.85,NNW,338,0.0,0.0,86,0.00,,,0.01,VWS V13.01,2013-07-21 23:16:00,
2013-07-21 19:21:00,79.9,75.3,30.85,NNW,338,0.0,1.0,86,0.00,,,0.01,VWS V13.01,2013-07-21 23:21:00,
2013-07-21 19:26:00,79.9,75.0,30.85,NNW,333,0.0,3.0,85,0.00,,,0.01,VWS V13.01,2013-07-21 23:26:00,
2013-07-21 19:31:00,80.0,75.1,30.85,WNW,295,0.0,1.0,85,0.00,,,0.01,VWS V13.01,2013-07-21 23:31:00,
2013-07-21 19:36:00,80.1,74.8,30.85,WNW,288,0.0,2.0,84,0.00,,,0.01,VWS V13.01,2013-07-21 23:36:00,
2013-07-21 19:41:00,80.0,75.1,18.62,WNW,288,0.0,1.0,85,0.00,,,0.01,VWS V13.01,2013-07-21 23:41:00,
2013-07-21 19:46:00,79.9,75.0,18.62,WSW,257,1.0,2.0,85,0.00,,,0.01,VWS V13.01,2013-07-21 23:46:00,
2013-07-21 19:51:00,79.9,75.0,18.62,WSW,257,0.0,2.0,85,0.00,,,0.01,VWS V13.01,2013-07-21 23:51:00,
2013-07-21 19:56:00,79.9,75.3,16.92,South,186,0.0,5.0,86,0.00,,,0.01,VWS V13.01,2013-07-21 23:56:00,
2013-07-21 20:01:00,79.8,75.2,16.92,SW,232,2.0,3.0,86,0.00,,,0.01,VWS V13.01,2013-07-22 00:01:00,
2013-07-21 20:06:00,79.7,75.5,16.92,SSW,202,0.0,4.0,87,0.00,,,0.01,VWS V13.01,2013-07-22 00:06:00,
2013-07-21 20:11:00,79.5,75.3,16.92,SSW,210,2.0,3.0,87,0.00,,,0.01,VWS V13.01,2013-07-22 00:11:00,
2013-07-21 20:16:00,79.4,75.2,16.92,South,184,2.0,3.0,87,0.00,,,0.01,VWS V13.01,2013-07-22 00:16:00,
2013-07-21 20:21:00,79.2,75.0,16.92,SSW,192,4.0,4.0,87,0.00,,,0.01,VWS V13.01,2013-07-22 00:21:00,
2013-07-21 20:26:00,79.2,75.3,16.92,WSW,238,1.0,3.0,88,0.00,,,0.01,VWS V13.01,2013-07-22 00:26:00,
2013-07-21 20:31:00,79.0,75.2,16.92,SSW,207,0.0,2.0,88,0.00,,,0.01,VWS V13.01,2013-07-22 00:31:00,
2013-07-21 20:36:00,78.7,74.8,16.92,SSW,207,0.0,0.0,88,0.00,,,0.01,VWS V13.01,2013-07-22 00:36:00,
2013-07-21 20:41:00,78.7,74.8,16.92,SSW,207,0.0,1.0,88,0.00,,,0.01,VWS V13.01,2013-07-22 00:41:00,
2013-07-21 20:46:00,78.7,74.8,16.92,SSW,207,0.0,0.0,88,0.00,,,0.01,VWS V13.01,2013-07-22 00:46:00,
2013-07-21 20:51:00,78.5,74.7,16.91,West,263,0.0,2.0,88,0.00,,,0.01,VWS V13.01,2013-07-22 00:51:00,
2013-07-21 20:56:00,78.5,75.0,16.91,West,264,0.0,2.0,89,0.00,,,0.01,VWS V13.01,2013-07-22 00:56:00,
2013-07-21 21:01:00,78.4,74.9,16.92,West,263,0.0,0.0,89,0.00,,,0.01,VWS V13.01,2013-07-22 01:01:00,
2013-07-21 21:06:00,78.4,74.9,30.87,West,278,0.0,3.0,89,0.00,,,0.01,VWS V13.01,2013-07-22 01:06:00,
2013-07-21 21:11:00,78.4,74.9,16.91,West,278,0.0,2.0,89,0.00,,,0.01,VWS V13.01,2013-07-22 01:11:00,
2013-07-21 21:16:00,78.4,74.9,16.91,WSW,241,0.0,2.0,89,0.00,,,0.01,VWS V13.01,2013-07-22 01:16:00,
2013-07-21 21:21:00,78.4,74.9,16.92,West,278,0.0,3.0,89,0.00,,,0.01,VWS V13.01,2013-07-22 01:21:00,
2013-07-21 21:26:00,78.4,74.9,16.92,WSW,254,1.0,2.0,89,0.00,,,0.01,VWS V13.01,2013-07-22 01:26:00,
2013-07-21 21:31:00,78.4,74.9,16.92,WSW,257,0.0,0.0,89,0.00,,,0.01,VWS V13.01,2013-07-22 01:31:00,
2013-07-21 21:36:00,78.3,74.5,16.92,WSW,256,0.0,1.0,88,0.00,,,0.01,VWS V13.01,2013-07-22 01:36:00,
2013-07-21 21:41:00,78.1,74.3,19.14,WSW,256,1.0,1.0,88,0.00,,,0.01,VWS V13.01,2013-07-22 01:41:00,
2013-07-21 21:46:00,78.0,74.2,19.14,WSW,257,0.0,2.0,88,0.00,,,0.01,VWS V13.01,2013-07-22 01:46:00,
2013-07-21 21:51:00,78.0,74.5,19.14,WSW,238,1.0,1.0,89,0.00,,,0.01,VWS V13.01,2013-07-22 01:51:00,
2013-07-21 21:56:00,78.2,74.7,19.14,SSW,195,0.0,2.0,89,0.00,,,0.01,VWS V13.01,2013-07-22 01:56:00,
2013-07-21 22:01:00,77.9,74.4,19.14,SSW,195,1.0,1.0,89,0.00,,,0.01,VWS V13.01,2013-07-22 02:01:00,
2013-07-21 22:06:00,77.8,74.0,19.14,SSW,194,0.0,1.0,88,0.00,,,0.01,VWS V13.01,2013-07-22 02:06:00,
2013-07-21 22:11:00,77.6,74.1,19.14,SSW,194,0.0,0.0,89,0.00,,,0.01,VWS V13.01,2013-07-22 02:11:00,
2013-07-21 22:16:00,77.8,74.6,19.14,SSW,196,2.0,4.0,90,0.00,,,0.01,VWS V13.01,2013-07-22 02:16:00,
2013-07-21 22:21:00,77.9,74.7,19.14,South,171,1.0,4.0,90,0.00,,,0.01,VWS V13.01,2013-07-22 02:21:00,
2013-07-21 22:26:00,77.9,74.7,19.14,SSE,168,3.0,3.0,90,0.00,,,0.01,VWS V13.01,2013-07-22 02:26:00,
2013-07-21 22:31:00,77.8,74.6,16.92,SSE,168,1.0,2.0,90,0.00,,,0.01,VWS V13.01,2013-07-22 02:31:00,
2013-07-21 22:36:00,77.7,74.5,16.92,SW,214,3.0,4.0,90,0.00,,,0.01,VWS V13.01,2013-07-22 02:36:00,
2013-07-21 22:41:00,77.7,74.5,16.92,SSE,162,4.0,7.0,90,0.00,,,0.01,VWS V13.01,2013-07-22 02:41:00,
2013-07-21 22:46:00,77.5,74.3,16.92,SSE,153,0.0,3.0,90,0.00,,,0.01,VWS V13.01,2013-07-22 02:46:00,
2013-07-21 22:51:00,77.4,74.6,16.92,SSE,163,0.0,1.0,91,0.00,,,0.01,VWS V13.01,2013-07-22 02:51:00,
2013-07-21 22:56:00,77.4,74.6,16.92,SSE,163,2.0,2.0,91,0.00,,,0.01,VWS V13.01,2013-07-22 02:56:00,
2013-07-21 23:01:00,77.3,74.5,16.92,SSE,163,1.0,2.0,91,0.00,,,0.01,VWS V13.01,2013-07-22 03:01:00,
2013-07-21 23:06:00,77.3,74.5,16.92,SSW,205,1.0,4.0,91,0.00,,,0.01,VWS V13.01,2013-07-22 03:06:00,
2013-07-21 23:11:00,77.2,74.4,16.92,SW,223,0.0,3.0,91,0.00,,,0.01,VWS V13.01,2013-07-22 03:11:00,
2013-07-21 23:16:00,77.1,74.3,16.92,SSW,202,2.0,4.0,91,0.00,,,0.01,VWS V13.01,2013-07-22 03:16:00,
2013-07-21 23:21:00,77.0,73.8,16.92,SSE,147,2.0,3.0,90,0.00,,,0.01,VWS V13.01,2013-07-22 03:21:00,
2013-07-21 23:26:00,76.9,73.8,16.91,SSE,147,0.0,2.0,90,0.00,,,0.01,VWS V13.01,2013-07-22 03:26:00,
2013-07-21 23:31:00,76.8,73.3,16.91,SSE,152,0.0,2.0,89,0.00,,,0.01,VWS V13.01,2013-07-22 03:31:00,
2013-07-21 23:36:00,76.8,73.3,16.91,South,179,0.0,2.0,89,0.00,,,0.01,VWS V13.01,2013-07-22 03:36:00,
2013-07-21 23:41:00,76.7,72.5,16.91,SSE,152,0.0,2.0,87,0.00,,,0.01,VWS V13.01,2013-07-22 03:41:00,
2013-07-21 23:46:00,76.5,72.3,16.91,SE,132,1.0,2.0,87,0.00,,,0.01,VWS V13.01,2013-07-22 03:46:00,
2013-07-21 23:51:00,76.6,72.8,16.91,SE,132,0.0,1.0,88,0.00,,,0.01,VWS V13.01,2013-07-22 03:51:00,
2013-07-21 23:56:00,76.5,72.3,16.91,SE,132,0.0,0.0,87,0.00,,,0.01,VWS V13.01,2013-07-22 03:56:00,